createdAt,value
2019-04-29T00:00:03.255Z,101662.55
2019-04-29T00:02:36.953Z,101671.88
2019-04-29T00:05:08.815Z,101681.58
2019-04-29T00:07:41.296Z,101672.47
2019-04-29T00:10:16.874Z,101676.30
2019-04-29T00:12:47.869Z,101672.80
2019-04-29T00:15:20.478Z,101670.07
2019-04-29T00:17:57.437Z,101671.06
2019-04-29T00:20:30.879Z,101669.05
2019-04-29T00:23:01.878Z,101670.48
2019-04-29T00:25:34.328Z,101674.98
2019-04-29T00:28:05.363Z,101668.84
2019-04-29T00:30:36.399Z,101663.19
2019-04-29T00:33:07.409Z,101666.73
2019-04-29T00:35:39.428Z,101661.08
2019-04-29T00:38:28.397Z,101652.42
2019-04-29T00:41:16.240Z,101660.96
2019-04-29T00:44:00.657Z,101655.27
2019-04-29T00:46:31.803Z,101658.03
2019-04-29T00:49:02.912Z,101664.92
2019-04-29T00:51:34.687Z,101660.17
2019-04-29T00:54:12.241Z,101661.09
2019-04-29T00:56:43.070Z,101667.16
2019-04-29T00:59:14.152Z,101658.45
2019-04-29T01:01:45.188Z,101666.12
2019-04-29T01:04:17.635Z,101673.25
2019-04-29T01:06:48.711Z,101667.52
2019-04-29T01:09:20.323Z,101667.97
2019-04-29T01:11:51.301Z,101678.00
2019-04-29T01:14:22.432Z,101666.70
2019-04-29T01:16:53.539Z,101670.48
2019-04-29T01:19:27.576Z,101668.22
2019-04-29T01:21:58.623Z,101670.94
2019-04-29T01:24:29.639Z,101674.03
2019-04-29T01:27:03.165Z,101674.82
2019-04-29T01:29:34.789Z,101665.20
2019-04-29T01:32:07.906Z,101673.13
2019-04-29T01:34:43.508Z,101680.30
2019-04-29T01:37:14.575Z,101683.02
2019-04-29T01:39:50.229Z,101671.80
2019-04-29T01:42:22.852Z,101678.52
2019-04-29T01:44:53.866Z,101678.06
2019-04-29T01:47:24.908Z,101670.22
2019-04-29T01:49:55.917Z,101672.45
2019-04-29T01:52:26.935Z,101672.98
2019-04-29T01:54:57.906Z,101674.83
2019-04-29T01:57:28.861Z,101672.47
2019-04-29T01:59:59.869Z,101669.08
2019-04-29T02:02:30.841Z,101680.63
2019-04-29T02:05:02.817Z,101680.81
2019-04-29T02:07:33.833Z,101683.54
2019-04-29T02:10:09.986Z,101682.30
2019-04-29T02:12:41.088Z,101677.59
2019-04-29T02:15:12.111Z,101678.65
2019-04-29T02:17:43.143Z,101686.75
2019-04-29T02:20:14.182Z,101684.53
2019-04-29T02:22:51.307Z,101681.48
2019-04-29T02:25:28.225Z,101675.94
2019-04-29T02:27:59.260Z,101685.28
2019-04-29T02:30:45.366Z,101683.59
2019-04-29T02:33:16.385Z,101684.08
2019-04-29T02:35:47.384Z,101680.91
2019-04-29T02:38:20.022Z,101683.28
2019-04-29T02:40:52.664Z,101686.94
2019-04-29T02:43:25.255Z,101685.36
2019-04-29T02:45:57.701Z,101686.78
2019-04-29T02:48:34.459Z,101687.27
2019-04-29T02:51:02.973Z,101690.81
2019-04-29T02:53:37.340Z,101688.25
2019-04-29T02:56:08.365Z,101693.63
2019-04-29T02:58:45.990Z,101692.84
2019-04-29T03:01:26.130Z,101699.02
2019-04-29T03:04:16.861Z,101702.17
2019-04-29T03:06:48.703Z,101697.80
2019-04-29T03:09:20.693Z,101700.97
2019-04-29T03:11:51.730Z,101700.77
2019-04-29T03:14:23.105Z,101696.05
2019-04-29T03:16:54.287Z,101707.56
2019-04-29T03:19:26.935Z,101708.61
2019-04-29T03:21:59.786Z,101708.55
2019-04-29T03:24:31.758Z,101698.48
2019-04-29T03:27:03.122Z,101703.27
2019-04-29T03:29:34.203Z,101701.95
2019-04-29T03:32:05.200Z,101704.20
2019-04-29T03:34:37.601Z,101710.27
2019-04-29T03:37:08.528Z,101710.27
2019-04-29T03:39:40.514Z,101712.31
2019-04-29T03:42:11.494Z,101705.62
2019-04-29T03:44:45.557Z,101709.05
2019-04-29T03:47:18.972Z,101713.77
2019-04-29T03:49:50.945Z,101715.46
2019-04-29T03:52:22.151Z,101710.42
2019-04-29T03:54:53.226Z,101719.88
2019-04-29T03:57:24.326Z,101725.02
2019-04-29T03:59:57.059Z,101725.70
2019-04-29T04:02:32.942Z,101728.11
2019-04-29T04:05:08.413Z,101730.41
2019-04-29T04:07:41.789Z,101737.23
2019-04-29T04:10:14.005Z,101736.98
2019-04-29T04:12:45.075Z,101737.02
2019-04-29T04:15:16.109Z,101737.88
2019-04-29T04:17:48.670Z,101741.33
2019-04-29T04:20:19.887Z,101738.69
2019-04-29T04:22:50.880Z,101739.23
2019-04-29T04:25:22.097Z,101744.45
2019-04-29T04:27:53.032Z,101750.88
2019-04-29T04:30:24.070Z,101747.42
2019-04-29T04:32:56.591Z,101746.39
2019-04-29T04:35:27.622Z,101751.44
2019-04-29T04:37:58.801Z,101750.36
2019-04-29T04:40:35.214Z,101756.88
2019-04-29T04:43:06.344Z,101754.88
2019-04-29T04:45:37.435Z,101759.01
2019-04-29T04:48:08.443Z,101758.55
2019-04-29T04:50:39.481Z,101761.59
2019-04-29T04:53:10.693Z,101757.61
2019-04-29T04:55:44.166Z,101757.92
2019-04-29T04:58:16.615Z,101756.13
2019-04-29T05:00:47.573Z,101758.67
2019-04-29T05:03:18.582Z,101754.12
2019-04-29T05:05:49.614Z,101755.13
2019-04-29T05:08:21.485Z,101753.66
2019-04-29T05:10:53.433Z,101752.66
2019-04-29T05:13:28.489Z,101753.19
2019-04-29T05:15:57.371Z,101757.44
2019-04-29T05:18:28.307Z,101757.89
2019-04-29T05:20:59.336Z,101763.45
2019-04-29T05:23:31.920Z,101758.30
2019-04-29T05:26:03.893Z,101762.88
2019-04-29T05:28:38.800Z,101762.80
2019-04-29T05:31:09.832Z,101769.84
2019-04-29T05:33:40.819Z,101776.31
2019-04-29T05:36:13.431Z,101773.45
2019-04-29T05:38:47.605Z,101776.78
2019-04-29T05:41:21.504Z,101769.50
2019-04-29T05:43:55.502Z,101770.19
2019-04-29T05:46:43.435Z,101769.50
2019-04-29T05:49:16.000Z,101777.72
2019-04-29T05:51:51.478Z,101771.84
2019-04-29T05:54:26.911Z,101779.09
2019-04-29T05:56:56.941Z,101783.77
2019-04-29T05:59:27.857Z,101785.31
2019-04-29T06:01:58.878Z,101786.95
2019-04-29T06:04:31.550Z,101788.89
2019-04-29T06:07:02.562Z,101794.98
2019-04-29T06:09:34.387Z,101790.81
2019-04-29T06:12:09.319Z,101795.42
2019-04-29T06:14:41.754Z,101795.38
2019-04-29T06:17:14.289Z,101793.05
2019-04-29T06:19:45.283Z,101807.06
2019-04-29T06:22:16.304Z,101801.70
2019-04-29T06:24:47.293Z,101812.96
2019-04-29T06:27:19.259Z,101815.12
2019-04-29T06:29:50.287Z,101809.75
2019-04-29T06:32:24.856Z,101809.20
2019-04-29T06:34:54.057Z,101816.91
2019-04-29T06:37:26.685Z,101816.20
2019-04-29T06:40:00.793Z,101818.14
2019-04-29T06:42:33.593Z,101807.88
2019-04-29T06:45:06.543Z,101819.17
2019-04-29T06:47:37.650Z,101821.13
2019-04-29T06:50:09.475Z,101828.94
2019-04-29T06:52:41.967Z,101825.42
2019-04-29T06:55:14.565Z,101821.66
2019-04-29T06:57:46.403Z,101822.73
2019-04-29T07:00:22.217Z,101816.23
2019-04-29T07:02:53.272Z,101821.64
2019-04-29T07:05:24.347Z,101825.23
2019-04-29T07:07:56.973Z,101830.83
2019-04-29T07:10:31.198Z,101826.81
2019-04-29T07:13:06.261Z,101833.29
2019-04-29T07:15:37.278Z,101828.89
2019-04-29T07:18:08.385Z,101832.22
2019-04-29T07:20:43.481Z,101823.05
2019-04-29T07:23:14.572Z,101831.53
2019-04-29T07:25:45.581Z,101830.86
2019-04-29T07:28:18.460Z,101828.80
2019-04-29T07:31:01.138Z,101825.63
2019-04-29T07:33:24.427Z,101833.16
2019-04-29T07:35:55.229Z,101835.22
2019-04-29T07:38:40.580Z,101838.26
2019-04-29T07:41:02.062Z,101847.00
2019-04-29T07:43:38.546Z,101848.30
2019-04-29T07:46:21.319Z,101844.08
2019-04-29T07:49:01.262Z,101833.78
2019-04-29T07:51:27.988Z,101837.27
2019-04-29T07:54:00.609Z,101835.67
2019-04-29T07:56:32.441Z,101837.80
2019-04-29T07:59:06.718Z,101841.69
2019-04-29T08:01:37.913Z,101844.32
2019-04-29T08:04:09.168Z,101836.59
2019-04-29T08:06:42.969Z,101839.36
2019-04-29T08:09:13.979Z,101839.86
2019-04-29T08:11:47.627Z,101846.90
2019-04-29T08:14:21.963Z,101839.75
2019-04-29T08:16:52.995Z,101839.06
2019-04-29T08:19:29.602Z,101849.30
2019-04-29T08:21:59.934Z,101847.34
2019-04-29T08:24:31.008Z,101853.74
2019-04-29T08:27:02.011Z,101854.70
2019-04-29T08:29:35.848Z,101856.19
2019-04-29T08:32:08.124Z,101853.95
2019-04-29T08:34:40.953Z,101853.56
2019-04-29T08:37:12.133Z,101871.21
2019-04-29T08:39:43.226Z,101870.98
2019-04-29T08:42:15.806Z,101862.83
2019-04-29T08:44:59.751Z,101864.47
2019-04-29T08:47:31.640Z,101863.48
2019-04-29T08:50:02.120Z,101863.85
2019-04-29T08:52:34.549Z,101862.31
2019-04-29T08:55:08.765Z,101865.46
2019-04-29T08:57:39.772Z,101869.00
2019-04-29T09:00:11.957Z,101860.58
2019-04-29T09:02:47.135Z,101861.77
2019-04-29T09:05:15.874Z,101858.96
2019-04-29T09:07:46.897Z,101861.25
2019-04-29T09:10:19.966Z,101865.23
2019-04-29T09:12:52.488Z,101862.67
2019-04-29T09:15:24.406Z,101864.31
2019-04-29T09:17:55.816Z,101859.25
2019-04-29T09:20:26.886Z,101864.13
2019-04-29T09:22:59.487Z,101857.44
2019-04-29T09:25:32.126Z,101874.06
2019-04-29T09:28:04.739Z,101870.30
2019-04-29T09:30:38.690Z,101871.41
2019-04-29T09:33:13.218Z,101876.34
2019-04-29T09:35:42.266Z,101891.08
2019-04-29T09:38:13.310Z,101878.45
2019-04-29T09:40:54.468Z,101878.13
2019-04-29T09:43:42.275Z,101872.19
2019-04-29T09:46:18.421Z,101878.73
2019-04-29T09:48:51.273Z,101863.60
2019-04-29T09:51:27.772Z,101866.56
2019-04-29T09:53:58.198Z,101868.60
2019-04-29T09:56:29.430Z,101863.70
2019-04-29T09:59:18.123Z,101864.47
2019-04-29T10:02:00.000Z,101866.25
2019-04-29T10:04:32.586Z,101856.30
2019-04-29T10:07:04.314Z,101874.85
2019-04-29T10:09:35.413Z,101868.70
2019-04-29T10:12:09.010Z,101866.66
2019-04-29T10:14:40.674Z,101867.59
2019-04-29T10:17:22.403Z,101852.94
2019-04-29T10:20:01.274Z,101868.08
2019-04-29T10:22:32.327Z,101880.33
2019-04-29T10:25:04.666Z,101866.35
2019-04-29T10:27:35.844Z,101872.17
2019-04-29T10:30:08.248Z,101878.14
2019-04-29T10:32:42.545Z,101883.98
2019-04-29T10:35:14.571Z,101886.23
2019-04-29T10:37:47.165Z,101882.34
2019-04-29T10:40:28.396Z,101884.39
2019-04-29T10:43:17.390Z,101878.96
2019-04-29T10:46:06.315Z,101883.14
2019-04-29T10:48:45.082Z,101884.04
2019-04-29T10:51:17.170Z,101882.73
2019-04-29T10:53:51.113Z,101871.59
2019-04-29T10:56:22.270Z,101893.95
2019-04-29T10:58:54.703Z,101886.05
2019-04-29T11:01:30.378Z,101885.69
2019-04-29T11:04:02.838Z,101887.44
2019-04-29T11:06:35.881Z,101887.23
2019-04-29T11:09:14.358Z,101891.02
2019-04-29T11:11:47.915Z,101883.98
2019-04-29T11:14:24.556Z,101895.94
2019-04-29T11:16:54.105Z,101891.42
2019-04-29T11:19:25.346Z,101907.89
2019-04-29T11:21:56.443Z,101892.95
2019-04-29T11:24:44.280Z,101895.19
2019-04-29T11:27:25.725Z,101883.70
2019-04-29T11:30:02.296Z,101891.97
2019-04-29T11:32:34.107Z,101878.96
2019-04-29T11:35:08.379Z,101888.23
2019-04-29T11:37:40.875Z,101884.52
2019-04-29T11:40:12.083Z,101886.27
2019-04-29T11:42:43.024Z,101887.76
2019-04-29T11:45:14.869Z,101882.34
2019-04-29T11:47:45.878Z,101890.92
2019-04-29T11:50:34.596Z,101881.02
2019-04-29T11:53:06.277Z,101887.05
2019-04-29T11:55:37.423Z,101890.41
2019-04-29T11:58:26.087Z,101882.94
2019-04-29T12:01:03.927Z,101876.03
2019-04-29T12:03:39.093Z,101885.22
2019-04-29T12:06:16.207Z,101877.22
2019-04-29T12:08:48.172Z,101869.33
2019-04-29T12:11:19.753Z,101870.20
2019-04-29T12:14:08.521Z,101877.83
2019-04-29T12:16:41.361Z,101876.05
2019-04-29T12:19:17.054Z,101877.05
2019-04-29T12:21:50.357Z,101856.26
2019-04-29T12:24:21.345Z,101860.06
2019-04-29T12:26:52.365Z,101874.89
2019-04-29T12:29:23.360Z,101865.13
2019-04-29T12:32:12.186Z,101866.86
2019-04-29T12:34:50.774Z,101857.75
2019-04-29T12:37:25.593Z,101872.84
2019-04-29T12:40:01.403Z,101858.41
2019-04-29T12:42:50.397Z,101860.09
2019-04-29T12:45:38.267Z,101864.63
2019-04-29T12:48:23.439Z,101842.78
2019-04-29T12:50:42.216Z,101854.02
2019-04-29T12:53:13.266Z,101849.11
2019-04-29T12:55:49.429Z,101842.70
2019-04-29T12:58:19.206Z,101840.29
2019-04-29T13:00:59.768Z,101849.42
2019-04-29T13:03:25.583Z,101842.39
2019-04-29T13:06:14.319Z,101842.70
2019-04-29T13:08:53.688Z,101840.78
2019-04-29T13:11:37.625Z,101840.61
2019-04-29T13:14:01.774Z,101835.62
2019-04-29T13:16:34.770Z,101835.13
2019-04-29T13:19:13.319Z,101837.79
2019-04-29T13:21:45.830Z,101840.15
2019-04-29T13:24:24.045Z,101837.83
2019-04-29T13:26:50.532Z,101830.41
2019-04-29T13:29:27.364Z,101837.69
2019-04-29T13:31:54.221Z,101826.98
2019-04-29T13:34:30.940Z,101835.01
2019-04-29T13:37:07.221Z,101833.69
2019-04-29T13:39:39.639Z,101826.67
2019-04-29T13:42:12.868Z,101833.23
2019-04-29T13:44:42.560Z,101835.55
2019-04-29T13:47:17.743Z,101834.83
2019-04-29T13:49:50.328Z,101834.59
2019-04-29T13:52:21.537Z,101833.59
2019-04-29T13:54:53.530Z,101832.18
2019-04-29T13:57:24.551Z,101830.00
2019-04-29T14:00:13.239Z,101835.04
2019-04-29T14:03:07.318Z,101826.20
2019-04-29T14:05:37.799Z,101827.98
2019-04-29T14:08:09.289Z,101831.67
2019-04-29T14:10:46.912Z,101834.59
2019-04-29T14:13:20.982Z,101832.59
2019-04-29T14:15:50.545Z,101830.11
2019-04-29T14:18:23.069Z,101827.03
2019-04-29T14:20:54.933Z,101828.12
2019-04-29T14:23:27.682Z,101838.25
2019-04-29T14:25:58.716Z,101831.33
2019-04-29T14:28:29.719Z,101830.55
2019-04-29T14:31:00.929Z,101830.55
2019-04-29T14:33:33.655Z,101823.06
2019-04-29T14:36:06.236Z,101829.54
2019-04-29T14:38:40.579Z,101836.16
2019-04-29T14:41:14.211Z,101821.99
2019-04-29T14:43:55.006Z,101828.92
2019-04-29T14:46:28.703Z,101843.03
2019-04-29T14:49:10.471Z,101833.02
2019-04-29T14:51:41.482Z,101836.81
2019-04-29T14:54:12.401Z,101842.14
2019-04-29T14:56:45.722Z,101839.87
2019-04-29T14:59:16.787Z,101833.25
2019-04-29T15:01:55.579Z,101858.53
2019-04-29T15:04:28.134Z,101842.24
2019-04-29T15:07:01.498Z,101846.91
2019-04-29T15:09:45.962Z,101852.29
2019-04-29T15:12:10.511Z,101839.45
2019-04-29T15:15:01.077Z,101853.38
2019-04-29T15:17:35.133Z,101842.59
2019-04-29T15:20:09.149Z,101837.95
2019-04-29T15:22:42.004Z,101849.08
2019-04-29T15:25:16.775Z,101840.23
2019-04-29T15:27:46.844Z,101835.86
2019-04-29T15:30:18.739Z,101836.54
2019-04-29T15:32:53.126Z,101837.25
2019-04-29T15:35:24.295Z,101839.63
2019-04-29T15:37:55.315Z,101839.95
2019-04-29T15:40:28.771Z,101836.98
2019-04-29T15:43:01.141Z,101836.07
2019-04-29T15:45:34.124Z,101843.30
2019-04-29T15:48:05.050Z,101828.81
2019-04-29T15:50:37.019Z,101836.05
2019-04-29T15:53:08.998Z,101831.78
2019-04-29T15:55:41.679Z,101828.77
2019-04-29T15:58:13.705Z,101838.81
2019-04-29T16:00:44.707Z,101826.66
2019-04-29T16:03:17.769Z,101832.47
2019-04-29T16:06:11.159Z,101834.14
2019-04-29T16:08:30.446Z,101827.45
2019-04-29T16:11:03.012Z,101833.11
2019-04-29T16:13:34.980Z,101822.52
2019-04-29T16:16:06.471Z,101827.99
2019-04-29T16:18:37.540Z,101827.63
2019-04-29T16:21:08.462Z,101827.25
2019-04-29T16:23:41.805Z,101832.27
2019-04-29T16:26:12.830Z,101825.09
2019-04-29T16:28:44.918Z,101824.50
2019-04-29T16:31:15.962Z,101819.14
2019-04-29T16:33:54.310Z,101827.38
2019-04-29T16:36:19.694Z,101829.98
2019-04-29T16:38:53.493Z,101831.36
2019-04-29T16:41:35.691Z,101825.56
2019-04-29T16:44:34.152Z,101819.05
2019-04-29T16:46:47.129Z,101822.09
2019-04-29T16:49:21.318Z,101816.27
2019-04-29T16:51:55.857Z,101813.98
2019-04-29T16:54:28.313Z,101817.59
2019-04-29T16:56:59.678Z,101821.96
2019-04-29T16:59:31.615Z,101818.34
2019-04-29T17:02:04.140Z,101818.30
2019-04-29T17:04:35.083Z,101816.69
2019-04-29T17:07:13.983Z,101822.09
2019-04-29T17:09:43.706Z,101819.33
2019-04-29T17:12:14.888Z,101824.34
2019-04-29T17:15:04.057Z,101820.05
2019-04-29T17:17:29.289Z,101814.77
2019-04-29T17:19:56.849Z,101818.11
2019-04-29T17:22:27.951Z,101818.19
2019-04-29T17:24:59.881Z,101819.64
2019-04-29T17:27:41.910Z,101830.70
2019-04-29T17:30:11.706Z,101819.52
2019-04-29T17:32:48.511Z,101829.83
2019-04-29T17:35:21.699Z,101833.30
2019-04-29T17:37:50.620Z,101824.50
2019-04-29T17:40:21.720Z,101846.63
2019-04-29T17:42:54.301Z,101839.14
2019-04-29T17:45:43.140Z,101839.30
2019-04-29T17:48:21.525Z,101843.19
2019-04-29T17:50:54.153Z,101839.87
2019-04-29T17:53:26.764Z,101840.14
2019-04-29T17:56:02.174Z,101842.64
2019-04-29T17:58:51.250Z,101840.66
2019-04-29T18:01:23.860Z,101846.05
2019-04-29T18:04:01.956Z,101851.27
2019-04-29T18:06:34.580Z,101843.46
2019-04-29T18:09:25.926Z,101851.57
2019-04-29T18:11:57.907Z,101851.69
2019-04-29T18:14:36.544Z,101858.13
2019-04-29T18:17:02.580Z,101856.98
2019-04-29T18:19:39.525Z,101857.81
2019-04-29T18:22:29.464Z,101865.95
2019-04-29T18:25:05.434Z,101871.55
2019-04-29T18:27:38.081Z,101869.38
2019-04-29T18:30:12.226Z,101874.95
2019-04-29T18:32:46.761Z,101871.48
2019-04-29T18:35:17.177Z,101874.13
2019-04-29T18:37:48.215Z,101877.80
2019-04-29T18:40:19.317Z,101881.41
2019-04-29T18:42:51.478Z,101889.43
2019-04-29T18:45:29.571Z,101884.64
2019-04-29T18:47:59.269Z,101885.72
2019-04-29T18:50:34.306Z,101888.59
2019-04-29T18:53:03.064Z,101894.35
2019-04-29T18:55:35.327Z,101893.45
2019-04-29T18:58:08.047Z,101901.88
2019-04-29T19:00:39.050Z,101892.59
2019-04-29T19:03:12.600Z,101897.34
2019-04-29T19:05:46.621Z,101895.92
2019-04-29T19:08:23.093Z,101894.22
2019-04-29T19:10:52.617Z,101896.95
2019-04-29T19:13:26.043Z,101895.73
2019-04-29T19:16:09.134Z,101904.52
2019-04-29T19:18:30.723Z,101909.34
2019-04-29T19:21:01.703Z,101907.53
2019-04-29T19:23:32.636Z,101906.70
2019-04-29T19:26:04.608Z,101905.39
2019-04-29T19:28:36.922Z,101910.17
2019-04-29T19:31:11.253Z,101910.77
2019-04-29T19:33:46.419Z,101901.77
2019-04-29T19:36:21.822Z,101901.07
2019-04-29T19:38:51.719Z,101902.91
2019-04-29T19:41:27.615Z,101907.34
2019-04-29T19:44:01.679Z,101913.61
2019-04-29T19:46:38.282Z,101900.12
2019-04-29T19:49:09.851Z,101895.81
2019-04-29T19:51:39.299Z,101901.08
2019-04-29T19:54:11.037Z,101894.63
2019-04-29T19:56:42.173Z,101893.92
2019-04-29T19:59:16.622Z,101889.72
2019-04-29T20:01:49.612Z,101885.48
2019-04-29T20:04:22.535Z,101883.88
2019-04-29T20:06:58.654Z,101886.64
2019-04-29T20:09:28.601Z,101879.76
2019-04-29T20:12:11.398Z,101878.16
2019-04-29T20:14:36.713Z,101877.45
2019-04-29T20:17:26.823Z,101878.05
2019-04-29T20:20:08.910Z,101874.42
2019-04-29T20:22:43.455Z,101879.09
2019-04-29T20:25:13.361Z,101876.65
2019-04-29T20:27:45.954Z,101875.04
2019-04-29T20:30:20.656Z,101880.84
2019-04-29T20:32:50.365Z,101879.80
2019-04-29T20:35:22.640Z,101884.28
2019-04-29T20:37:56.649Z,101892.23
2019-04-29T20:40:35.106Z,101890.59
2019-04-29T20:43:00.993Z,101889.40
2019-04-29T20:45:32.172Z,101883.41
2019-04-29T20:48:03.528Z,101885.23
2019-04-29T20:50:35.739Z,101886.58
2019-04-29T20:53:30.505Z,101884.52
2019-04-29T20:56:09.410Z,101893.00
2019-04-29T20:58:33.258Z,101887.44
2019-04-29T21:01:10.781Z,101883.97
2019-04-29T21:03:40.774Z,101883.54
2019-04-29T21:06:12.660Z,101880.10
2019-04-29T21:08:50.985Z,101883.63
2019-04-29T21:11:21.018Z,101887.69
2019-04-29T21:13:57.307Z,101889.98
2019-04-29T21:16:30.945Z,101882.20
2019-04-29T21:19:08.813Z,101882.29
2019-04-29T21:21:41.884Z,101886.73
2019-04-29T21:24:17.475Z,101886.81
2019-04-29T21:26:45.988Z,101885.14
2019-04-29T21:29:19.448Z,101883.91
2019-04-29T21:31:58.619Z,101882.28
2019-04-29T21:34:25.612Z,101883.23
2019-04-29T21:37:05.593Z,101883.31
2019-04-29T21:39:36.523Z,101882.48
2019-04-29T21:42:18.817Z,101887.37
2019-04-29T21:44:49.913Z,101887.87
2019-04-29T21:47:25.318Z,101884.90
2019-04-29T21:49:57.736Z,101887.53
2019-04-29T21:52:28.579Z,101880.59
2019-04-29T21:54:59.616Z,101882.88
2019-04-29T21:57:32.359Z,101877.26
2019-04-29T22:00:05.710Z,101889.61
2019-04-29T22:02:36.907Z,101882.28
2019-04-29T22:05:09.553Z,101878.47
2019-04-29T22:07:44.583Z,101878.05
2019-04-29T22:10:15.279Z,101882.94
2019-04-29T22:12:46.570Z,101891.37
2019-04-29T22:15:29.269Z,101883.02
2019-04-29T22:17:56.595Z,101884.80
2019-04-29T22:20:23.403Z,101881.83
2019-04-29T22:22:55.925Z,101879.75
2019-04-29T22:25:28.517Z,101880.72
2019-04-29T22:28:01.061Z,101886.89
2019-04-29T22:30:35.409Z,101876.44
2019-04-29T22:33:07.349Z,101880.84
2019-04-29T22:35:40.759Z,101872.70
2019-04-29T22:38:12.659Z,101864.95
2019-04-29T22:40:45.224Z,101866.34
2019-04-29T22:43:19.475Z,101868.96
2019-04-29T22:45:52.048Z,101865.08
2019-04-29T22:48:24.894Z,101868.64
2019-04-29T22:50:56.069Z,101867.83
2019-04-29T22:53:27.343Z,101867.08
2019-04-29T22:55:58.436Z,101861.90
2019-04-29T22:58:29.512Z,101862.79
2019-04-29T23:01:02.493Z,101857.22
2019-04-29T23:03:38.745Z,101861.70
2019-04-29T23:06:11.725Z,101853.03
2019-04-29T23:08:47.965Z,101857.46
2019-04-29T23:11:19.009Z,101850.90
2019-04-29T23:13:50.279Z,101850.47
2019-04-29T23:16:24.370Z,101848.89
2019-04-29T23:18:55.573Z,101844.58
2019-04-29T23:21:43.236Z,101845.96
2019-04-29T23:24:13.172Z,101844.20
2019-04-29T23:26:44.909Z,101849.50
2019-04-29T23:29:16.368Z,101842.08
2019-04-29T23:31:47.427Z,101837.83
2019-04-29T23:34:20.192Z,101835.27
2019-04-29T23:36:51.243Z,101839.14
2019-04-29T23:39:22.440Z,101836.95
2019-04-29T23:41:55.366Z,101829.14
2019-04-29T23:44:26.288Z,101830.52
2019-04-29T23:46:58.789Z,101829.31
2019-04-29T23:49:29.896Z,101834.52
2019-04-29T23:52:00.973Z,101828.00
2019-04-29T23:54:43.749Z,101827.15
2019-04-29T23:57:07.252Z,101827.20
2019-04-29T23:59:39.885Z,101822.02
